Погода Алпинополисна 2 недели

Минас-Жерайс, Бразилия

19 июля-01 августа
  • 19июля
    Сегодня
    +12°
    +26°
    Ясно и безоблачно
    ВремяПогодаТемператураВлажностьДавлениеВетер, м/сВероятность осадков
    00:00Ясно и безоблачно+16°C61 %690 мм2.2 м/с5 %
    03:00Ясно и безоблачно+14°C64 %690 мм2.3 м/с5 %
    06:00Ясно и безоблачно+13°C71 %690 мм2.7 м/с5 %
    09:00Ясно и безоблачно+18°C64 %693 мм2.0 м/с5 %
    12:00Ясно и безоблачно+23°C45 %693 мм2.0 м/с5 %
    15:00Ясно и безоблачно+26°C38 %692 мм1.2 м/с5 %
    18:00Ясно и безоблачно+22°C58 %691 мм1.6 м/с5 %
    21:00Ясно и безоблачно+18°C61 %691 мм2.3 м/с5 %
  • 20июля
    Суббота
    +11°
    +26°
    Ясно и безоблачно
    ВремяПогодаТемператураВлажностьДавлениеВетер, м/сВероятность осадков
    00:00Ясно и безоблачно+16°C68 %691 мм2.5 м/с5 %
    03:00Ясно и безоблачно+15°C76 %690 мм2.7 м/с5 %
    06:00Ясно и безоблачно+13°C88 %689 мм2.6 м/с5 %
    09:00Ясно и безоблачно+18°C67 %692 мм2.4 м/с5 %
    12:00Ясно и безоблачно+23°C47 %692 мм2.1 м/с5 %
    15:00Ясно и безоблачно+26°C39 %691 мм2.0 м/с5 %
    18:00Ясно и безоблачно+22°C59 %690 мм1.6 м/с5 %
    21:00Ясно и безоблачно+18°C62 %689 мм2.2 м/с5 %
  • 21июля
    Воскресенье
    +13°
    +25°
    Ясно и безоблачно
    ВремяПогодаТемператураВлажностьДавлениеВетер, м/сВероятность осадков
    00:00Ясно и безоблачно+17°C70 %690 мм2.8 м/с5 %
    03:00Ясно и безоблачно+15°C79 %689 мм2.9 м/с5 %
    06:00Ясно и безоблачно+12°C88 %689 мм2.9 м/с5 %
    09:00Ясно и безоблачно+17°C70 %691 мм2.9 м/с5 %
    12:00Ясно и безоблачно+22°C50 %692 мм2.7 м/с5 %
    15:00Ясно и безоблачно+25°C43 %690 мм2.2 м/с5 %
    18:00Ясно и безоблачно+23°C52 %690 мм1.4 м/с5 %
    21:00Ясно и безоблачно+17°C73 %690 мм2.0 м/с5 %
  • 22июля
    Понедельник
    +13°
    +26°
    Ясно и безоблачно
    ВремяПогодаТемператураВлажностьДавлениеВетер, м/сВероятность осадков
    00:00Ясно и безоблачно+16°C74 %690 мм2.5 м/с5 %
    03:00Ясно и безоблачно+15°C78 %689 мм2.7 м/с5 %
    06:00Ясно и безоблачно+13°C83 %690 мм2.3 м/с5 %
    09:00Ясно и безоблачно+18°C66 %692 мм1.7 м/с5 %
    12:00Ясно и безоблачно+24°C46 %693 мм1.7 м/с5 %
    15:00Ясно и безоблачно+26°C39 %691 мм1.8 м/с5 %
    18:00Ясно и безоблачно+22°C57 %691 мм1.6 м/с5 %
    21:00Ясно и безоблачно+18°C63 %691 мм2.6 м/с5 %
  • 23июля
    Вторник
    +13°
    +27°
    Ясно и безоблачно
    ВремяПогодаТемператураВлажностьДавлениеВетер, м/сВероятность осадков
    00:00Ясно и безоблачно+17°C70 %691 мм2.4 м/с5 %
    03:00Ясно и безоблачно+16°C78 %690 мм2.8 м/с5 %
    06:00Ясно и безоблачно+14°C83 %690 мм2.5 м/с5 %
    09:00Ясно и безоблачно+19°C64 %693 мм2.7 м/с5 %
    12:00Ясно и безоблачно+24°C44 %693 мм2.8 м/с5 %
    15:00Ясно и безоблачно+27°C32 %692 мм2.8 м/с5 %
    18:00Ясно и безоблачно+22°C49 %691 мм1.6 м/с5 %
    21:00Ясно и безоблачно+20°C57 %691 мм3.0 м/с5 %
Мы используем cookies
Соглашаюсь